Time;durP1;ratioP1;P1;durP2;ratioP2;P2;SDS_P1;SDS_P2;PMS_P1;PMS_P2;Temp;Humidity;BMP_temperature;BMP_pressure;BME280_temperature;BME280_humidity;BME280_pressure;Samples;Min_cycle;Max_cycle;Signal;HPM_P1;HPM_P2
2022/04/20 00:01:35;;;;;;;7.10;2.50;;;8.40;1.00;;;;;;5053873;28;20202;-61
2022/04/20 00:04:01;;;;;;;2.90;2.10;;;8.40;1.00;;;;;;5053779;28;20633;-60
2022/04/20 00:06:30;;;;;;;2.57;2.37;;;8.40;1.00;;;;;;5053564;28;20269;-60
2022/04/20 00:08:58;;;;;;;3.93;2.60;;;8.30;1.00;;;;;;5053976;28;20226;-60
2022/04/20 00:11:24;;;;;;;4.87;2.77;;;8.30;1.00;;;;;;5053690;28;20349;-60
2022/04/20 00:13:51;;;;;;;4.77;2.90;;;8.20;1.00;;;;;;5054056;28;20261;-57
2022/04/20 00:16:18;;;;;;;4.13;2.10;;;8.20;1.70;;;;;;5052995;28;20279;-58
2022/04/20 00:18:44;;;;;;;3.57;2.20;;;8.10;2.20;;;;;;5053614;28;20232;-60
2022/04/20 00:21:11;;;;;;;3.67;2.47;;;8.10;2.20;;;;;;5053509;28;20286;-61
2022/04/20 00:23:37;;;;;;;2.93;2.53;;;8.10;3.30;;;;;;5053589;28;20269;-60
2022/04/20 00:26:05;;;;;;;3.83;2.20;;;8.00;3.50;;;;;;5053236;28;20205;-60
2022/04/20 00:28:32;;;;;;;4.80;2.60;;;8.00;5.10;;;;;;5052813;28;20275;-60
2022/04/20 00:30:59;;;;;;;3.77;2.50;;;7.90;5.10;;;;;;5053438;28;20212;-60
2022/04/20 00:33:25;;;;;;;3.30;2.20;;;7.90;7.30;;;;;;5053261;28;20209;-60
2022/04/20 00:35:52;;;;;;;4.90;2.57;;;7.80;7.40;;;;;;5052938;28;20234;-60
2022/04/20 00:38:19;;;;;;;3.17;2.30;;;7.80;8.20;;;;;;5053182;28;20710;-59
2022/04/20 00:40:48;;;;;;;2.80;2.30;;;7.70;8.70;;;;;;5053108;28;20207;-58
2022/04/20 00:43:17;;;;;;;3.73;2.53;;;7.70;9.00;;;;;;5053143;28;20269;-59
2022/04/20 00:45:45;;;;;;;3.80;2.53;;;7.70;9.80;;;;;;5053287;28;20210;-58
2022/04/20 00:48:13;;;;;;;4.03;2.50;;;7.70;10.20;;;;;;5052807;28;20860;-60
2022/04/20 00:50:39;;;;;;;4.27;2.70;;;7.70;22.10;;;;;;5052975;28;20225;-60
2022/04/20 00:53:06;;;;;;;4.90;2.67;;;7.70;11.20;;;;;;5052985;28;20284;-60
2022/04/20 00:55:33;;;;;;;4.20;2.47;;;7.70;11.40;;;;;;5052677;28;20238;-60
2022/04/20 00:57:59;;;;;;;3.83;2.40;;;7.70;11.40;;;;;;5052631;28;20279;-58
2022/04/20 01:00:28;;;;;;;3.70;2.70;;;7.70;11.20;;;;;;5052735;28;20201;-59
2022/04/20 01:02:55;;;;;;;3.37;2.57;;;7.70;12.00;;;;;;5052757;28;20216;-59
2022/04/20 01:05:22;;;;;;;3.53;2.73;;;7.60;12.70;;;;;;5052761;28;20210;-60
2022/04/20 01:07:49;;;;;;;2.87;2.30;;;7.60;12.40;;;;;;5052021;28;20887;-61
2022/04/20 01:10:16;;;;;;;3.60;2.47;;;7.50;13.80;;;;;;5052139;28;20226;-60
2022/04/20 01:12:45;;;;;;;6.00;3.00;;;7.50;15.60;;;;;;5052573;28;20260;-59
2022/04/20 01:15:13;;;;;;;3.00;2.73;;;7.50;16.50;;;;;;5052849;28;20203;-60
2022/04/20 01:17:42;;;;;;;3.83;2.83;;;7.40;18.00;;;;;;5052045;28;20232;-59
2022/04/20 01:20:13;;;;;;;3.90;2.80;;;7.30;20.50;;;;;;5052545;28;20199;-59
2022/04/20 01:22:41;;;;;;;5.03;2.97;;;7.30;22.60;;;;;;5052000;28;20249;-56
2022/04/20 01:25:09;;;;;;;4.40;3.03;;;7.30;25.20;;;;;;5052171;28;20218;-55
2022/04/20 01:27:36;;;;;;;4.93;3.33;;;7.20;26.80;;;;;;5052226;28;20476;-59
2022/04/20 01:30:04;;;;;;;4.43;3.47;;;7.20;30.00;;;;;;5052065;28;20443;-56
2022/04/20 01:32:31;;;;;;;4.00;2.90;;;7.10;32.40;;;;;;5052254;28;20205;-58
2022/04/20 01:34:58;;;;;;;5.67;4.00;;;7.10;35.10;;;;;;5051805;28;20677;-60
2022/04/20 01:37:24;;;;;;;8.53;3.37;;;7.10;37.80;;;;;;5051538;28;20210;-60
2022/04/20 01:39:52;;;;;;;4.03;3.07;;;7.00;39.30;;;;;;5050731;28;20642;-60
2022/04/20 01:42:19;;;;;;;6.03;3.60;;;7.00;41.00;;;;;;5051845;28;20449;-59
2022/04/20 01:44:45;;;;;;;4.70;3.43;;;7.00;42.20;;;;;;5051638;28;20206;-59
2022/04/20 01:47:12;;;;;;;4.03;3.17;;;7.00;43.50;;;;;;5051157;28;20210;-60
2022/04/20 01:49:39;;;;;;;5.67;3.40;;;7.00;45.30;;;;;;5051448;28;20232;-60
2022/04/20 01:52:06;;;;;;;4.47;3.37;;;6.90;46.70;;;;;;5051479;28;20452;-60
2022/04/20 01:54:33;;;;;;;6.13;4.00;;;6.90;45.50;;;;;;5052041;28;20208;-60
2022/04/20 01:57:01;;;;;;;5.33;3.03;;;6.90;47.10;;;;;;5051273;28;20730;-59
2022/04/20 01:59:28;;;;;;;3.93;2.93;;;6.90;48.20;;;;;;5052042;28;20468;-60
2022/04/20 02:04:39;;;;;;;4.80;3.63;;;6.80;50.90;;;;;;5051831;28;20802;-60
2022/04/20 02:07:06;;;;;;;3.67;3.13;;;6.80;52.70;;;;;;5051466;28;20278;-60
2022/04/20 02:09:32;;;;;;;4.93;3.20;;;6.80;52.50;;;;;;5051396;28;20468;-60
2022/04/20 02:12:00;;;;;;;3.73;2.90;;;6.70;54.30;;;;;;5051566;28;20460;-59
2022/04/20 02:14:27;;;;;;;6.33;2.77;;;6.70;56.90;;;;;;5051246;28;21000;-59
2022/04/20 02:16:54;;;;;;;4.33;3.57;;;6.80;56.70;;;;;;5050943;28;20445;-60
2022/04/20 02:19:20;;;;;;;4.50;3.50;;;6.70;57.60;;;;;;5051320;28;20225;-59
2022/04/20 02:21:47;;;;;;;4.57;3.20;;;6.70;58.80;;;;;;5051456;28;20209;-58
2022/04/20 02:24:14;;;;;;;4.13;3.10;;;6.60;62.90;;;;;;5051196;28;20873;-59
2022/04/20 02:26:41;;;;;;;6.13;3.00;;;6.60;66.60;;;;;;5050921;28;20464;-60
2022/04/20 02:29:10;;;;;;;4.93;3.37;;;6.50;69.20;;;;;;5051412;28;20471;-57
2022/04/20 02:31:36;;;;;;;8.73;3.70;;;6.50;69.60;;;;;;5050902;28;20248;-59
2022/04/20 02:34:03;;;;;;;5.57;3.07;;;6.50;72.70;;;;;;5051439;28;20459;-57
2022/04/20 02:36:31;;;;;;;4.77;3.63;;;6.50;73.40;;;;;;5050641;28;20275;-60
2022/04/20 02:38:58;;;;;;;5.40;3.50;;;6.40;75.30;;;;;;5051473;28;20476;-60
2022/04/20 02:41:25;;;;;;;5.40;3.20;;;6.50;74.60;;;;;;5050723;28;20943;-59
2022/04/20 02:43:52;;;;;;;4.00;3.27;;;6.50;76.90;;;;;;5051230;28;20448;-59
2022/04/20 02:46:22;;;;;;;4.47;3.37;;;6.50;79.60;;;;;;5050580;28;20715;-58
2022/04/20 02:48:49;;;;;;;4.53;3.40;;;6.50;80.00;;;;;;5050928;28;20986;-60
2022/04/20 02:51:16;;;;;;;7.30;3.60;;;6.50;75.80;;;;;;5053752;28;20229;-60
2022/04/20 02:53:42;;;;;;;5.20;3.83;;;6.50;74.30;;;;;;5055055;28;20664;-60
2022/04/20 02:56:09;;;;;;;6.03;4.20;;;6.50;74.40;;;;;;5054504;28;20255;-60
2022/04/20 02:58:36;;;;;;;4.80;3.70;;;6.40;74.80;;;;;;5054843;28;20225;-60
2022/04/20 03:01:03;;;;;;;4.83;3.87;;;6.40;75.50;;;;;;5055163;28;20450;-60
2022/04/20 03:03:31;;;;;;;4.70;3.30;;;6.30;80.70;;;;;;5054387;28;20665;-60
2022/04/20 03:05:57;;;;;;;9.60;3.50;;;6.20;85.70;;;;;;5054743;28;20448;-60
2022/04/20 03:08:24;;;;;;;4.77;3.30;;;6.10;90.60;;;;;;5054688;28;20513;-59
2022/04/20 03:10:52;;;;;;;5.97;3.30;;;6.10;91.90;;;;;;5054372;28;20499;-60
2022/04/20 03:13:18;;;;;;;7.10;3.73;;;6.10;93.80;;;;;;5054614;28;20448;-60
2022/04/20 03:15:46;;;;;;;7.40;3.70;;;6.00;95.60;;;;;;5054467;28;20489;-60
2022/04/20 03:18:13;;;;;;;4.80;3.67;;;6.00;96.20;;;;;;5054053;28;20476;-60
2022/04/20 03:20:41;;;;;;;5.20;3.40;;;6.00;96.30;;;;;;5054593;28;20448;-60
2022/04/20 03:23:08;;;;;;;5.37;3.77;;;6.00;95.80;;;;;;5054426;28;20501;-60
2022/04/20 03:25:35;;;;;;;4.73;3.37;;;6.00;98.60;;;;;;5054645;28;20909;-58
2022/04/20 03:28:02;;;;;;;7.13;3.60;;;5.90;99.90;;;;;;5054256;28;20472;-60
2022/04/20 03:30:29;;;;;;;4.97;3.90;;;5.90;99.90;;;;;;5054675;28;20514;-60
2022/04/20 03:32:56;;;;;;;7.37;3.67;;;5.90;99.90;;;;;;5054357;28;20455;-59
2022/04/20 03:35:22;;;;;;;9.17;3.43;;;5.90;99.90;;;;;;5054086;28;20447;-59
2022/04/20 03:37:50;;;;;;;4.90;3.73;;;5.80;99.90;;;;;;5053953;28;20480;-60
2022/04/20 03:40:17;;;;;;;5.00;3.07;;;5.70;99.90;;;;;;5054386;28;20444;-60
2022/04/20 03:42:44;;;;;;;6.40;3.83;;;5.70;99.90;;;;;;5054410;28;20455;-60
2022/04/20 03:45:10;;;;;;;4.77;3.50;;;5.70;99.90;;;;;;5054642;28;20861;-60
2022/04/20 03:47:38;;;;;;;6.10;3.53;;;5.60;99.90;;;;;;5054141;28;20510;-60
2022/04/20 03:50:05;;;;;;;5.37;3.93;;;5.60;99.90;;;;;;5054142;28;20452;-60
2022/04/20 03:52:32;;;;;;;7.60;3.50;;;5.60;99.90;;;;;;5054259;28;20451;-60
2022/04/20 03:55:00;;;;;;;5.57;3.40;;;5.50;99.90;;;;;;5053914;28;20867;-60
2022/04/20 03:57:27;;;;;;;6.17;3.67;;;5.50;99.90;;;;;;5054058;28;20822;-60
2022/04/20 03:59:53;;;;;;;6.30;3.40;;;5.50;99.90;;;;;;5054124;28;20518;-60
2022/04/20 04:02:20;;;;;;;4.93;3.40;;;5.50;99.90;;;;;;5053624;28;20517;-60
2022/04/20 04:04:47;;;;;;;5.07;3.13;;;5.50;99.90;;;;;;5054153;28;20448;-60
2022/04/20 04:07:13;;;;;;;4.13;3.10;;;5.50;99.90;;;;;;5053392;28;20954;-60
2022/04/20 04:09:40;;;;;;;4.93;3.60;;;5.60;99.90;;;;;;5053690;28;20475;-59
2022/04/20 04:12:10;;;;;;;7.97;4.20;;;5.60;99.90;;;;;;5053502;28;20492;-60
2022/04/20 04:14:40;;;;;;;4.90;3.33;;;5.60;99.90;;;;;;5053955;28;20484;-60
2022/04/20 04:17:07;;;;;;;5.93;3.33;;;5.60;99.90;;;;;;5053254;28;20522;-60
2022/04/20 04:19:35;;;;;;;6.83;3.33;;;5.70;99.90;;;;;;5053577;28;20467;-60
2022/04/20 04:22:02;;;;;;;7.53;3.43;;;5.70;99.90;;;;;;5053258;28;20456;-60
2022/04/20 04:24:39;;;;;;;6.93;3.70;;;5.70;99.90;;;;;;5053811;28;20451;-61
2022/04/20 04:27:07;;;;;;;4.50;3.40;;;5.60;99.90;;;;;;5053544;28;20448;-60
2022/04/20 04:29:35;;;;;;;5.53;3.37;;;5.60;99.90;;;;;;5053546;28;20472;-60
2022/04/20 04:32:03;;;;;;;6.97;3.70;;;5.60;99.90;;;;;;5053349;28;20549;-60
2022/04/20 04:34:30;;;;;;;11.70;3.83;;;5.50;99.90;;;;;;5053703;28;21039;-60
2022/04/20 04:36:57;;;;;;;8.10;3.43;;;5.60;99.90;;;;;;5054162;28;20479;-60
2022/04/20 04:39:28;;;;;;;4.60;3.33;;;5.60;99.90;;;;;;5053625;28;21174;-60
2022/04/20 04:41:59;;;;;;;4.30;3.07;;;5.60;99.90;;;;;;5053418;28;20448;-60
2022/04/20 04:44:26;;;;;;;6.73;3.60;;;5.60;99.90;;;;;;5059239;28;20462;-60
2022/04/20 04:49:38;;;;;;;8.33;3.80;;;5.60;99.90;;;;;;5073107;28;20450;-60
2022/04/20 04:52:11;;;;;;;7.17;3.87;;;5.50;99.90;;;;;;5072568;28;20486;-61
2022/04/20 04:54:39;;;;;;;6.73;3.87;;;5.50;99.90;;;;;;5073287;28;20455;-61
2022/04/20 04:57:07;;;;;;;6.37;3.87;;;5.60;99.90;;;;;;5072059;28;20483;-61
2022/04/20 04:59:34;;;;;;;5.93;3.57;;;5.50;99.90;;;;;;5072997;28;20524;-61
2022/04/20 05:02:02;;;;;;;5.23;3.80;;;5.60;99.90;;;;;;5072873;28;20508;-59
2022/04/20 05:04:29;;;;;;;8.50;3.83;;;5.50;99.90;;;;;;5072815;28;20513;-60
2022/04/20 05:06:56;;;;;;;5.93;3.50;;;5.60;99.90;;;;;;5072344;28;20509;-60
2022/04/20 05:09:23;;;;;;;7.93;3.80;;;5.60;99.90;;;;;;5071637;28;20463;-60
2022/04/20 05:11:50;;;;;;;7.57;4.50;;;5.60;99.90;;;;;;5072478;28;20482;-60
2022/04/20 05:14:16;;;;;;;8.93;3.60;;;5.60;99.90;;;;;;5071058;28;20534;-60
2022/04/20 05:16:43;;;;;;;7.63;3.70;;;5.70;99.90;;;;;;5071900;28;20455;-59
2022/04/20 05:19:11;;;;;;;7.73;4.10;;;5.80;99.90;;;;;;5071781;28;20525;-60
2022/04/20 05:21:38;;;;;;;7.27;3.90;;;5.80;99.90;;;;;;5071917;28;20941;-59
2022/04/20 05:24:05;;;;;;;6.50;3.93;;;5.90;99.90;;;;;;5065675;28;20521;-59
2022/04/20 05:26:32;;;;;;;7.70;3.93;;;6.00;99.90;;;;;;5069115;28;20526;-59
2022/04/20 05:28:59;;;;;;;7.47;4.17;;;6.00;99.90;;;;;;5071553;28;20540;-61
2022/04/20 05:31:25;;;;;;;8.70;4.00;;;6.10;99.90;;;;;;5070855;28;20552;-60
2022/04/20 05:33:52;;;;;;;7.70;4.10;;;6.10;99.90;;;;;;5071721;28;20933;-59
2022/04/20 05:36:20;;;;;;;7.00;4.70;;;6.20;99.90;;;;;;5071228;28;20454;-59
2022/04/20 05:41:43;;;;;;;8.17;4.37;;;6.20;99.90;;;;;;5071552;28;20793;-61
2022/04/20 05:44:11;;;;;;;9.10;4.73;;;6.30;99.90;;;;;;5071019;28;20451;-58
2022/04/20 05:46:38;;;;;;;6.27;4.27;;;6.40;99.90;;;;;;5070665;28;20459;-60
2022/04/20 05:49:05;;;;;;;7.23;3.97;;;6.40;99.90;;;;;;5070930;28;20509;-59
2022/04/20 05:51:33;;;;;;;8.33;4.47;;;6.50;99.90;;;;;;5071030;28;20279;-59
2022/04/20 05:54:00;;;;;;;7.43;3.70;;;6.50;99.90;;;;;;5071387;28;20858;-60
2022/04/20 05:56:27;;;;;;;9.40;4.20;;;6.60;99.90;;;;;;5070463;28;20450;-59
2022/04/20 05:58:54;;;;;;;5.83;4.17;;;6.70;99.90;;;;;;5071343;28;20475;-63
2022/04/20 06:01:24;;;;;;;7.20;3.83;;;6.70;99.90;;;;;;5070449;28;20441;-62
2022/04/20 06:03:51;;;;;;;4.57;3.63;;;6.80;99.90;;;;;;5071083;28;20209;-61
2022/04/20 06:06:18;;;;;;;7.40;5.10;;;6.90;99.90;;;;;;5070116;28;20208;-61
2022/04/20 06:08:47;;;;;;;7.30;4.70;;;7.00;99.90;;;;;;5070704;28;20475;-59
2022/04/20 06:11:14;;;;;;;5.17;4.10;;;7.10;99.90;;;;;;5070984;28;20487;-60
2022/04/20 06:13:40;;;;;;;7.50;5.03;;;7.20;99.90;;;;;;5067890;28;20455;-61
2022/04/20 06:16:08;;;;;;;6.93;4.00;;;7.30;99.90;;;;;;5070317;28;20209;-63
2022/04/20 06:18:34;;;;;;;8.97;4.70;;;7.40;99.90;;;;;;5069678;28;20681;-60
2022/04/20 06:21:02;;;;;;;7.80;4.57;;;7.60;99.90;;;;;;5071039;28;20218;-60
2022/04/20 06:23:29;;;;;;;7.00;5.03;;;7.70;99.90;;;;;;5070643;28;20253;-60
2022/04/20 06:25:57;;;;;;;9.13;5.00;;;7.90;99.90;;;;;;5070013;28;20272;-60
2022/04/20 06:28:25;;;;;;;5.63;3.90;;;7.90;99.30;;;;;;5070096;28;20287;-60
2022/04/20 06:30:53;;;;;;;6.53;4.20;;;8.00;99.80;;;;;;5070880;28;20238;-59
2022/04/20 06:33:21;;;;;;;11.90;4.67;;;8.20;97.00;;;;;;5070626;28;20316;-59
2022/04/20 06:35:48;;;;;;;6.53;4.60;;;8.40;90.60;;;;;;5070617;28;20203;-58
2022/04/20 06:38:15;;;;;;;5.20;4.30;;;8.50;95.40;;;;;;5069372;28;20243;-59
2022/04/20 06:40:42;;;;;;;5.43;3.87;;;8.70;98.70;;;;;;5070668;28;20258;-61
2022/04/20 06:43:10;;;;;;;6.77;3.80;;;8.80;92.60;;;;;;5070322;28;20330;-61
2022/04/20 06:45:37;;;;;;;7.17;3.47;;;9.00;93.80;;;;;;5070120;28;20675;-61
2022/04/20 06:48:04;;;;;;;5.60;3.97;;;9.10;71.40;;;;;;5069686;28;20229;-60
2022/04/20 06:50:31;;;;;;;6.53;3.70;;;9.20;71.30;;;;;;5070269;28;20258;-61
2022/04/20 06:58:35;;;;;;;4.47;3.43;;;9.70;60.60;;;;;;5069352;28;20239;-61
2022/04/20 07:01:04;;;;;;;6.73;3.50;;;9.80;58.30;;;;;;5070307;28;20212;-59
2022/04/20 07:03:31;;;;;;;4.67;3.30;;;10.00;57.80;;;;;;5070481;28;20618;-61
2022/04/20 07:05:58;;;;;;;5.33;3.20;;;10.20;60.10;;;;;;5070247;28;20208;-62
2022/04/20 07:08:25;;;;;;;4.07;2.93;;;10.40;50.80;;;;;;5069467;28;20264;-61
2022/04/20 07:10:52;;;;;;;3.20;2.90;;;10.50;51.60;;;;;;5069787;28;20295;-60
2022/04/20 07:13:19;;;;;;;3.67;2.50;;;10.60;48.10;;;;;;5069827;28;20231;-60
2022/04/20 07:15:47;;;;;;;4.40;3.13;;;10.80;51.80;;;;;;5070059;28;20215;-60
2022/04/20 07:18:14;;;;;;;8.17;3.53;;;10.90;50.70;;;;;;5068259;28;20218;-62
2022/04/20 07:20:41;;;;;;;7.27;3.37;;;11.10;47.60;;;;;;5070079;28;20203;-60
2022/04/20 07:23:08;;;;;;;4.93;3.03;;;11.30;51.50;;;;;;5068785;28;20212;-62
2022/04/20 07:25:36;;;;;;;4.80;2.87;;;11.40;56.30;;;;;;5069796;28;20211;-62
2022/04/20 07:28:03;;;;;;;6.47;3.10;;;11.60;44.60;;;;;;5069255;28;20234;-63
2022/04/20 07:30:30;;;;;;;6.73;4.50;;;11.80;42.50;;;;;;5070302;28;20262;-63
2022/04/20 07:32:58;;;;;;;8.47;3.40;;;11.90;41.00;;;;;;5069799;28;20232;-62
2022/04/20 07:35:25;;;;;;;4.13;2.97;;;11.80;32.50;;;;;;5069732;28;20730;-62
2022/04/20 07:37:51;;;;;;;4.43;3.50;;;11.90;32.20;;;;;;5070556;28;20243;-62
2022/04/20 07:40:18;;;;;;;5.27;3.40;;;12.00;32.40;;;;;;5073581;28;20205;-62
2022/04/20 07:42:45;;;;;;;7.93;2.47;;;12.20;38.50;;;;;;5074009;28;20212;-60
2022/04/20 07:45:12;;;;;;;4.00;2.50;;;12.30;33.50;;;;;;5074817;28;20212;-60
2022/04/20 07:47:39;;;;;;;3.10;2.20;;;12.20;25.40;;;;;;5073158;28;20212;-59
2022/04/20 07:50:20;;;;;;;5.73;2.50;;;12.40;25.40;;;;;;5074291;28;20772;-61
2022/04/20 07:52:48;;;;;;;4.17;2.70;;;12.40;21.70;;;;;;5073137;28;20318;-63
2022/04/20 07:55:17;;;;;;;3.50;2.30;;;12.50;24.50;;;;;;5073445;28;20312;-63
2022/04/20 07:57:44;;;;;;;5.83;2.77;;;12.50;39.00;;;;;;5072600;28;20274;-62
2022/04/20 08:00:13;;;;;;;2.80;2.20;;;12.50;22.00;;;;;;5073055;28;20232;-63
2022/04/20 08:02:40;;;;;;;4.43;2.57;;;12.50;22.60;;;;;;5073547;28;20255;-61
2022/04/20 08:05:09;;;;;;;3.93;2.27;;;12.60;23.30;;;;;;5072711;28;20243;-60
2022/04/20 08:07:36;;;;;;;4.67;2.70;;;12.80;25.20;;;;;;5072874;28;20254;-61
2022/04/20 08:10:04;;;;;;;5.10;2.60;;;13.00;38.30;;;;;;5072713;28;20205;-61
2022/04/20 08:12:35;;;;;;;4.77;2.77;;;13.00;28.60;;;;;;5073218;28;20734;-62
2022/04/20 08:15:03;;;;;;;3.20;2.30;;;12.80;22.20;;;;;;5073425;28;20208;-61
2022/04/20 08:17:30;;;;;;;4.53;2.60;;;12.80;20.10;;;;;;5071810;28;20205;-62
2022/04/20 08:19:57;;;;;;;5.40;2.70;;;12.80;22.40;;;;;;5072895;28;20638;-63
2022/04/20 08:22:25;;;;;;;6.37;3.13;;;12.90;24.70;;;;;;5072596;28;20209;-61
2022/04/20 08:24:52;;;;;;;4.70;2.90;;;12.90;22.60;;;;;;5073487;28;20219;-63
2022/04/20 08:27:20;;;;;;;4.37;3.07;;;12.90;22.60;;;;;;5072174;28;20204;-63
2022/04/20 08:29:47;;;;;;;4.97;3.07;;;13.20;28.20;;;;;;5072301;28;20652;-62
2022/04/20 08:32:14;;;;;;;3.37;2.83;;;13.30;27.00;;;;;;5072887;28;20254;-62
2022/04/20 08:34:42;;;;;;;4.27;3.27;;;13.40;40.40;;;;;;5072637;28;20573;-63
2022/04/20 08:37:09;;;;;;;4.33;3.10;;;13.60;30.40;;;;;;5072183;28;20263;-62
2022/04/20 08:39:39;;;;;;;4.60;3.00;;;13.40;25.80;;;;;;5072228;28;20315;-62
2022/04/20 08:42:07;;;;;;;3.80;2.53;;;13.20;21.50;;;;;;5072196;28;20291;-62
2022/04/20 08:44:37;;;;;;;3.10;2.50;;;13.10;19.90;;;;;;5072240;28;20208;-60
2022/04/20 08:47:07;;;;;;;6.07;2.83;;;13.20;21.80;;;;;;5071466;28;20201;-59
2022/04/20 08:49:34;;;;;;;4.00;2.73;;;13.30;20.90;;;;;;5072166;28;20587;-64
2022/04/20 08:54:48;;;;;;;2.87;1.90;;;13.50;22.30;;;;;;5072356;28;20219;-63
2022/04/20 08:57:18;;;;;;;4.53;2.37;;;13.60;23.10;;;;;;5071239;28;20224;-63
2022/04/20 08:59:47;;;;;;;2.87;1.90;;;13.80;22.20;;;;;;5071949;28;20225;-64
2022/04/20 09:02:14;;;;;;;3.17;1.60;;;13.80;19.60;;;;;;5072649;28;20251;-64
2022/04/20 09:04:41;;;;;;;3.17;2.30;;;13.80;20.50;;;;;;5072475;28;20266;-63
2022/04/20 09:07:08;;;;;;;3.30;2.20;;;13.90;20.30;;;;;;5073461;28;20213;-64
2022/04/20 09:09:35;;;;;;;3.33;2.43;;;14.10;23.60;;;;;;5073082;28;20230;-63
2022/04/20 09:12:07;;;;;;;4.70;2.50;;;14.30;23.30;;;;;;5072654;28;20225;-60
2022/04/20 09:14:34;;;;;;;4.03;2.23;;;14.40;22.80;;;;;;5072725;28;20201;-58
2022/04/20 09:17:02;;;;;;;4.13;2.77;;;14.30;22.70;;;;;;5072197;28;20268;-60
2022/04/20 09:19:29;;;;;;;3.30;2.40;;;14.20;20.10;;;;;;5071859;28;20233;-61
2022/04/20 09:21:57;;;;;;;3.60;2.60;;;14.10;20.00;;;;;;5071265;28;20213;-61
2022/04/20 09:24:24;;;;;;;5.73;2.30;;;14.30;23.10;;;;;;5071899;28;20207;-61
2022/04/20 09:26:52;;;;;;;3.97;2.40;;;14.10;19.60;;;;;;5070881;28;20213;-61
2022/04/20 09:29:20;;;;;;;9.43;3.07;;;14.00;18.50;;;;;;5071660;28;20321;-58
2022/04/20 09:31:49;;;;;;;4.47;2.80;;;14.20;20.60;;;;;;5071741;28;20288;-63
2022/04/20 09:34:53;;;;;;;5.37;2.50;;;14.30;20.60;;;;;;5071124;28;20237;-61
2022/04/20 09:37:21;;;;;;;4.50;3.03;;;14.40;23.00;;;;;;5070783;28;20213;-62
2022/04/20 09:39:49;;;;;;;5.17;3.47;;;14.60;24.80;;;;;;5070938;28;20238;-58
2022/04/20 09:42:16;;;;;;;4.20;3.10;;;14.40;35.90;;;;;;5071557;28;20297;-59
2022/04/20 09:44:59;;;;;;;5.07;2.70;;;14.40;23.30;;;;;;5070746;28;20201;-59
2022/04/20 09:50:13;;;;;;;8.00;2.90;;;14.50;21.50;;;;;;5071157;28;20755;-62
2022/04/20 09:52:41;;;;;;;4.13;2.50;;;14.50;23.80;;;;;;5070832;28;20709;-62
2022/04/20 09:55:11;;;;;;;2.60;1.80;;;14.70;22.40;;;;;;5071111;28;20214;-61
2022/04/20 09:57:38;;;;;;;2.67;2.23;;;14.50;18.70;;;;;;5070122;28;20218;-62
2022/04/20 10:00:12;;;;;;;2.40;1.93;;;14.50;22.00;;;;;;5070612;28;20214;-61
2022/04/20 10:02:44;;;;;;;2.30;2.07;;;14.80;23.60;;;;;;5070967;28;20207;-62
2022/04/20 10:05:11;;;;;;;3.60;2.37;;;14.60;20.60;;;;;;5071105;28;20634;-62
2022/04/20 10:07:38;;;;;;;2.40;2.20;;;14.50;20.30;;;;;;5070311;28;20226;-62
2022/04/20 10:10:05;;;;;;;2.97;2.17;;;14.40;17.90;;;;;;5070608;28;20603;-60
2022/04/20 10:12:33;;;;;;;5.30;2.30;;;14.50;18.00;;;;;;5071070;28;20223;-61
2022/04/20 10:17:50;;;;;;;2.97;2.13;;;14.60;19.20;;;;;;5069588;28;20267;-59
2022/04/20 10:20:17;;;;;;;2.97;2.20;;;14.70;19.50;;;;;;5070215;28;20241;-64
2022/04/20 10:22:46;;;;;;;4.57;2.17;;;14.70;20.30;;;;;;5070476;28;20295;-63
2022/04/20 10:25:13;;;;;;;4.67;2.47;;;14.80;20.80;;;;;;5070702;28;20213;-62
2022/04/20 10:28:09;;;;;;;2.53;1.90;;;14.90;23.00;;;;;;5069436;28;20284;-61
2022/04/20 10:30:45;;;;;;;2.60;2.10;;;15.10;22.20;;;;;;5057489;28;20220;-62
2022/04/20 10:33:16;;;;;;;6.63;2.40;;;15.00;22.30;;;;;;5069859;28;20228;-63
2022/04/20 10:35:57;;;;;;;2.47;2.13;;;15.10;21.70;;;;;;5071345;28;20240;-62
2022/04/20 10:38:25;;;;;;;5.23;2.43;;;15.10;19.80;;;;;;5070151;28;20230;-61
2022/04/20 10:41:02;;;;;;;3.03;2.13;;;15.10;19.80;;;;;;5070685;28;20215;-61
2022/04/20 10:43:30;;;;;;;3.03;2.40;;;14.90;20.20;;;;;;5070503;28;20321;-61
2022/04/20 10:46:05;;;;;;;2.40;2.20;;;14.90;19.00;;;;;;5070186;28;20278;-61
2022/04/20 10:48:51;;;;;;;3.80;2.40;;;14.80;17.60;;;;;;5070491;28;20231;-62
2022/04/20 10:51:22;;;;;;;3.73;2.60;;;14.70;19.60;;;;;;5069934;28;20678;-61
2022/04/20 10:53:50;;;;;;;3.77;2.17;;;14.80;19.10;;;;;;5070289;28;20292;-62
2022/04/20 10:56:18;;;;;;;2.50;2.00;;;15.00;20.30;;;;;;5069901;28;20262;-63
2022/04/20 10:58:52;;;;;;;3.33;2.30;;;15.10;20.20;;;;;;5070343;28;20297;-63
2022/04/20 11:01:20;;;;;;;4.20;2.30;;;15.00;19.10;;;;;;5070255;28;20318;-62
2022/04/20 11:04:05;;;;;;;2.80;2.10;;;14.90;16.20;;;;;;5070347;28;20214;-60
2022/04/20 11:07:06;;;;;;;3.50;2.40;;;14.90;18.50;;;;;;5070175;28;20210;-61
2022/04/20 11:09:59;;;;;;;6.80;2.70;;;15.20;23.90;;;;;;5069997;28;20222;-62
2022/04/20 11:18:42;;;;;;;4.70;2.83;;;15.40;21.70;;;;;;5073800;28;20266;-61
2022/04/20 11:21:19;;;;;;;2.47;2.20;;;15.50;22.80;;;;;;5073600;28;20221;-62
2022/04/20 11:23:57;;;;;;;3.17;2.40;;;15.60;24.80;;;;;;5074546;28;20239;-62
2022/04/20 11:26:28;;;;;;;3.23;2.27;;;15.70;22.70;;;;;;5073386;28;20204;-63
2022/04/20 11:28:55;;;;;;;2.83;2.30;;;15.90;24.20;;;;;;5074056;28;20260;-62
2022/04/20 11:31:23;;;;;;;3.40;2.40;;;15.80;23.90;;;;;;5073892;28;20389;-61
2022/04/20 11:33:51;;;;;;;4.47;2.00;;;15.70;21.80;;;;;;5074258;28;20233;-61
2022/04/20 11:36:20;;;;;;;3.20;2.50;;;15.80;24.30;;;;;;5073545;28;20693;-62
2022/04/20 11:38:48;;;;;;;4.30;2.50;;;15.90;24.10;;;;;;5073326;28;20238;-61
2022/04/20 11:41:16;;;;;;;5.10;2.40;;;15.90;27.90;;;;;;5074054;28;20269;-62
2022/04/20 11:43:44;;;;;;;5.20;3.73;;;16.00;26.30;;;;;;5073488;28;20299;-61
2022/04/20 11:46:13;;;;;;;4.27;3.17;;;16.20;28.60;;;;;;5073602;28;20220;-61
2022/04/20 11:48:50;;;;;;;3.50;2.70;;;16.00;26.80;;;;;;5073689;28;20233;-62
2022/04/20 11:51:23;;;;;;;3.63;2.57;;;16.00;26.40;;;;;;5073514;28;20748;-62
2022/04/20 11:53:50;;;;;;;3.00;2.37;;;15.80;25.80;;;;;;5073684;28;20224;-61
2022/04/20 11:56:17;;;;;;;3.37;2.90;;;15.50;20.00;;;;;;5072559;28;20314;-63
2022/04/20 11:58:49;;;;;;;3.60;2.90;;;15.50;23.20;;;;;;5073584;28;20279;-63
2022/04/20 12:01:16;;;;;;;3.80;2.30;;;15.60;22.00;;;;;;5073372;28;20292;-60
2022/04/20 12:03:45;;;;;;;2.60;2.40;;;15.80;25.20;;;;;;5073302;28;20570;-64
2022/04/20 12:06:12;;;;;;;3.37;2.70;;;15.90;23.10;;;;;;5072828;28;20267;-61
2022/04/20 12:08:41;;;;;;;3.40;2.73;;;15.90;23.80;;;;;;5072445;28;20645;-63
2022/04/20 12:11:09;;;;;;;2.60;2.20;;;15.90;22.80;;;;;;5073397;28;20242;-63
2022/04/20 12:13:37;;;;;;;2.87;2.57;;;16.10;27.60;;;;;;5072918;28;20887;-63
2022/04/20 12:16:06;;;;;;;6.03;2.27;;;16.30;25.90;;;;;;5072652;28;20263;-63
2022/04/20 12:18:37;;;;;;;4.40;2.70;;;16.40;27.30;;;;;;5072705;28;20224;-62
2022/04/20 12:21:07;;;;;;;2.93;2.50;;;16.10;24.30;;;;;;5072677;28;20266;-63
2022/04/20 12:23:34;;;;;;;4.67;2.43;;;16.10;22.70;;;;;;5072622;28;20221;-61
2022/04/20 12:26:05;;;;;;;4.07;2.90;;;16.00;23.60;;;;;;5071853;28;20265;-61
2022/04/20 12:28:36;;;;;;;3.80;2.50;;;16.10;24.30;;;;;;5072959;28;20228;-63
2022/04/20 12:31:04;;;;;;;4.30;2.77;;;16.10;25.50;;;;;;5072592;28;20265;-63
2022/04/20 12:33:31;;;;;;;4.93;2.50;;;16.10;24.30;;;;;;5072757;28;20236;-62
2022/04/20 12:36:03;;;;;;;3.90;2.67;;;16.20;25.40;;;;;;5072678;28;20240;-63
2022/04/20 12:38:40;;;;;;;2.53;2.33;;;16.30;27.00;;;;;;5072400;28;20233;-62
2022/04/20 12:41:41;;;;;;;4.10;2.10;;;16.60;26.60;;;;;;5072863;28;20317;-63
2022/04/20 12:44:37;;;;;;;5.37;2.40;;;16.70;29.80;;;;;;5072023;28;20414;-63
2022/04/20 12:47:19;;;;;;;6.67;2.70;;;17.00;28.90;;;;;;5071756;28;20873;-63
2022/04/20 12:49:48;;;;;;;4.80;2.40;;;16.70;26.40;;;;;;5072678;28;20221;-63
2022/04/20 12:52:16;;;;;;;2.40;2.20;;;16.60;27.10;;;;;;5072804;28;20591;-62
2022/04/20 12:54:54;;;;;;;4.50;2.77;;;16.80;29.20;;;;;;5072783;28;20248;-62
2022/04/20 13:02:59;;;;;;;3.10;2.60;;;16.30;38.50;;;;;;5072234;28;20254;-62
2022/04/20 13:05:25;;;;;;;6.60;2.70;;;16.50;27.40;;;;;;5072638;28;20204;-64
2022/04/20 13:07:52;;;;;;;3.13;2.50;;;16.60;26.30;;;;;;5071096;28;20228;-61
2022/04/20 13:10:19;;;;;;;4.00;2.73;;;16.50;27.20;;;;;;5072504;28;20204;-61
2022/04/20 13:12:51;;;;;;;3.83;2.50;;;16.30;25.10;;;;;;5071841;28;20213;-61
2022/04/20 13:15:18;;;;;;;4.17;2.70;;;16.50;26.60;;;;;;5072082;28;20239;-61
2022/04/20 13:17:45;;;;;;;3.67;2.60;;;16.70;27.10;;;;;;5071216;28;20624;-61
2022/04/20 13:20:12;;;;;;;3.80;2.60;;;16.80;27.80;;;;;;5071601;28;20339;-61
2022/04/20 13:22:39;;;;;;;3.67;2.70;;;16.90;32.20;;;;;;5071830;28;20223;-61
2022/04/20 13:27:55;;;;;;;5.37;2.80;;;17.00;32.80;;;;;;5069831;28;20216;-59
2022/04/20 13:30:22;;;;;;;7.33;3.10;;;17.00;31.00;;;;;;5071582;28;20239;-61
2022/04/20 13:32:49;;;;;;;6.67;3.20;;;16.90;30.60;;;;;;5071790;28;20205;-60
2022/04/20 13:35:16;;;;;;;3.77;3.40;;;16.40;25.00;;;;;;5070525;28;20252;-59
2022/04/20 13:37:43;;;;;;;4.03;3.10;;;16.50;26.90;;;;;;5070336;28;20262;-61